createdAt,value
2019-06-10T00:00:50.860Z,21.90
2019-06-10T00:03:20.665Z,21.90
2019-06-10T00:05:51.635Z,21.90
2019-06-10T00:08:20.930Z,21.90
2019-06-10T00:10:51.113Z,21.90
2019-06-10T00:13:20.905Z,21.90
2019-06-10T00:15:51.510Z,21.90
2019-06-10T00:18:37.352Z,21.90
2019-06-10T00:20:51.219Z,21.90
2019-06-10T00:23:21.237Z,21.90
2019-06-10T00:25:51.575Z,21.90
2019-06-10T00:28:21.718Z,21.90
2019-06-10T00:30:51.584Z,21.90
2019-06-10T00:33:21.591Z,21.90
2019-06-10T00:35:51.492Z,21.90
2019-06-10T00:38:21.473Z,21.90
2019-06-10T00:40:51.310Z,21.90
2019-06-10T00:43:21.378Z,21.90
2019-06-10T00:45:51.393Z,21.90
2019-06-10T00:48:26.032Z,21.90
2019-06-10T00:50:51.807Z,21.90
2019-06-10T00:53:21.169Z,21.90
2019-06-10T00:55:51.615Z,21.90
2019-06-10T00:58:21.678Z,21.90
2019-06-10T01:00:51.683Z,21.90
2019-06-10T01:03:20.947Z,21.90
2019-06-10T01:05:50.911Z,21.90
2019-06-10T01:08:21.523Z,21.90
2019-06-10T01:10:51.992Z,21.90
2019-06-10T01:13:20.784Z,21.90
2019-06-10T01:15:51.145Z,21.90
2019-06-10T01:18:34.653Z,21.90
2019-06-10T01:20:51.573Z,21.90
2019-06-10T01:23:21.855Z,21.90
2019-06-10T01:25:51.086Z,21.80
2019-06-10T01:28:22.039Z,21.80
2019-06-10T01:30:51.710Z,21.90
2019-06-10T01:33:21.231Z,21.80
2019-06-10T01:35:51.522Z,21.80
2019-06-10T01:38:21.162Z,21.80
2019-06-10T01:40:50.999Z,21.80
2019-06-10T01:43:21.415Z,21.80
2019-06-10T01:45:51.137Z,21.80
2019-06-10T01:48:21.016Z,21.80
2019-06-10T01:50:51.305Z,21.80
2019-06-10T01:53:22.004Z,21.80
2019-06-10T01:55:52.004Z,21.80
2019-06-10T01:58:23.342Z,21.80
2019-06-10T02:01:01.479Z,21.80
2019-06-10T02:03:31.353Z,21.80
2019-06-10T02:06:01.443Z,21.80
2019-06-10T02:08:31.671Z,21.80
2019-06-10T02:11:01.197Z,21.80
2019-06-10T02:13:32.537Z,21.80
2019-06-10T02:16:01.969Z,21.80
2019-06-10T02:18:32.026Z,21.80
2019-06-10T02:21:01.143Z,21.80
2019-06-10T02:23:31.344Z,21.80
2019-06-10T02:26:01.611Z,21.80
2019-06-10T02:28:31.851Z,21.80
2019-06-10T02:31:03.315Z,21.80
2019-06-10T02:33:36.073Z,21.80
2019-06-10T02:36:04.107Z,21.80
2019-06-10T02:38:35.482Z,21.80
2019-06-10T02:41:04.520Z,21.80
2019-06-10T02:43:36.260Z,21.80
2019-06-10T02:46:04.345Z,21.80
2019-06-10T02:48:34.780Z,21.80
2019-06-10T02:51:04.003Z,21.80
2019-06-10T02:53:36.131Z,21.80
2019-06-10T02:56:04.194Z,21.80
2019-06-10T02:58:38.401Z,21.80
2019-06-10T03:01:04.269Z,21.80
2019-06-10T03:03:42.803Z,21.80
2019-06-10T03:06:07.630Z,21.80
2019-06-10T03:08:36.072Z,21.80
2019-06-10T03:11:03.957Z,21.80
2019-06-10T03:13:33.126Z,21.80
2019-06-10T03:16:29.820Z,21.80
2019-06-10T03:18:58.207Z,21.80
2019-06-10T03:21:26.887Z,21.80
2019-06-10T03:23:55.267Z,21.80
2019-06-10T03:26:25.412Z,21.80
2019-06-10T03:28:53.804Z,21.80
2019-06-10T03:31:31.011Z,21.80
2019-06-10T03:33:54.311Z,21.80
2019-06-10T03:36:24.606Z,21.80
2019-06-10T03:38:53.854Z,21.70
2019-06-10T03:41:23.725Z,21.70
2019-06-10T03:43:53.069Z,21.80
2019-06-10T03:46:23.782Z,21.80
2019-06-10T03:48:52.601Z,21.70
2019-06-10T03:51:21.843Z,21.70
2019-06-10T03:53:53.085Z,21.70
2019-06-10T03:56:23.556Z,21.70
2019-06-10T03:58:52.102Z,21.70
2019-06-10T04:01:24.342Z,21.70
2019-06-10T04:03:52.915Z,21.70
2019-06-10T04:06:23.912Z,21.70
2019-06-10T04:08:52.339Z,21.70
2019-06-10T04:11:24.014Z,21.70
2019-06-10T04:13:53.379Z,21.70
2019-06-10T04:16:22.687Z,21.70
2019-06-10T04:18:53.259Z,21.70
2019-06-10T04:21:22.745Z,21.70
2019-06-10T04:23:52.786Z,21.70
2019-06-10T04:26:24.510Z,21.70
2019-06-10T04:28:53.028Z,21.70
2019-06-10T04:31:23.782Z,21.70
2019-06-10T04:33:52.451Z,21.70
2019-06-10T04:36:23.121Z,21.70
2019-06-10T04:38:52.485Z,21.70
2019-06-10T04:41:23.011Z,21.70
2019-06-10T04:43:53.129Z,21.70
2019-06-10T04:46:23.694Z,21.70
2019-06-10T04:48:53.267Z,21.70
2019-06-10T04:51:23.810Z,21.70
2019-06-10T04:53:52.489Z,21.70
2019-06-10T04:56:24.113Z,21.70
2019-06-10T04:58:52.521Z,21.70
2019-06-10T05:01:24.092Z,21.70
2019-06-10T05:03:52.664Z,21.70
2019-06-10T05:06:23.778Z,21.70
2019-06-10T05:08:53.737Z,21.70
2019-06-10T05:11:24.239Z,21.70
2019-06-10T05:13:53.228Z,21.70
2019-06-10T05:16:25.555Z,21.70
2019-06-10T05:18:54.739Z,21.70
2019-06-10T05:21:25.093Z,21.70
2019-06-10T05:23:52.623Z,21.70
2019-06-10T05:26:25.033Z,21.70
2019-06-10T05:28:52.487Z,21.70
2019-06-10T05:31:22.495Z,21.70
2019-06-10T05:33:52.859Z,21.70
2019-06-10T05:36:23.971Z,21.70
2019-06-10T05:38:52.581Z,21.70
2019-06-10T05:41:24.088Z,21.70
2019-06-10T05:43:52.346Z,21.70
2019-06-10T05:46:23.641Z,21.70
2019-06-10T05:48:52.610Z,21.70
2019-06-10T05:51:23.171Z,21.70
2019-06-10T05:53:52.784Z,21.70
2019-06-10T05:56:23.496Z,21.70
2019-06-10T05:58:52.503Z,21.70
2019-06-10T06:01:22.879Z,21.70
2019-06-10T06:03:53.018Z,21.70
2019-06-10T06:06:22.973Z,21.70
2019-06-10T06:08:53.471Z,21.70
2019-06-10T06:11:23.140Z,21.70
2019-06-10T06:13:52.397Z,21.70
2019-06-10T06:16:23.091Z,21.70
2019-06-10T06:18:52.741Z,21.70
2019-06-10T06:21:29.198Z,21.70
2019-06-10T06:23:52.838Z,21.70
2019-06-10T06:26:23.737Z,21.70
2019-06-10T06:28:53.308Z,21.70
2019-06-10T06:31:23.242Z,21.70
2019-06-10T06:33:52.695Z,21.70
2019-06-10T06:36:22.698Z,21.70
2019-06-10T06:38:53.138Z,21.70
2019-06-10T06:41:22.602Z,21.70
2019-06-10T06:43:53.070Z,21.70
2019-06-10T06:46:23.341Z,21.70
2019-06-10T06:48:53.326Z,21.70
2019-06-10T06:51:35.996Z,21.70
2019-06-10T06:53:55.449Z,21.70
2019-06-10T06:56:23.016Z,21.70
2019-06-10T06:58:52.570Z,21.70
2019-06-10T07:01:25.493Z,21.70
2019-06-10T07:03:53.632Z,21.80
2019-06-10T07:06:23.239Z,21.80
2019-06-10T07:09:03.800Z,21.80
2019-06-10T07:11:23.114Z,21.80
2019-06-10T07:13:53.648Z,21.80
2019-06-10T07:16:23.113Z,21.80
2019-06-10T07:18:54.056Z,21.90
2019-06-10T07:21:23.371Z,21.90
2019-06-10T07:23:52.897Z,21.90
2019-06-10T07:26:22.214Z,21.90
2019-06-10T07:28:53.389Z,21.90
2019-06-10T07:31:27.510Z,21.90
2019-06-10T07:33:52.549Z,21.90
2019-06-10T07:36:23.593Z,21.90
2019-06-10T07:38:53.812Z,21.90
2019-06-10T07:41:23.148Z,21.90
2019-06-10T07:43:52.811Z,21.90
2019-06-10T07:46:23.101Z,21.90
2019-06-10T07:48:55.662Z,21.90
2019-06-10T07:51:22.623Z,21.90
2019-06-10T07:53:52.645Z,21.90
2019-06-10T07:56:23.397Z,21.90
2019-06-10T07:58:52.738Z,21.90
2019-06-10T08:01:22.946Z,21.90
2019-06-10T08:03:52.639Z,21.90
2019-06-10T08:06:22.973Z,21.90
2019-06-10T08:08:53.147Z,21.90
2019-06-10T08:11:22.852Z,21.90
2019-06-10T08:13:53.909Z,21.90
2019-06-10T08:16:23.604Z,21.90
2019-06-10T08:19:20.563Z,21.90
2019-06-10T08:21:22.938Z,21.90
2019-06-10T08:23:54.215Z,21.90
2019-06-10T08:26:23.152Z,21.90
2019-06-10T08:28:53.024Z,21.90
2019-06-10T08:31:22.560Z,21.90
2019-06-10T08:33:53.490Z,22.00
2019-06-10T08:36:22.460Z,22.00
2019-06-10T08:38:52.658Z,22.00
2019-06-10T08:41:23.107Z,22.00
2019-06-10T08:43:52.930Z,22.00
2019-06-10T08:46:22.525Z,22.00
2019-06-10T08:48:52.542Z,22.00
2019-06-10T08:51:23.610Z,22.00
2019-06-10T08:53:53.215Z,22.00
2019-06-10T08:56:22.434Z,22.10
2019-06-10T08:58:53.829Z,22.10
2019-06-10T09:01:22.300Z,22.10
2019-06-10T09:03:53.739Z,22.10
2019-06-10T09:06:23.059Z,22.00
2019-06-10T09:08:54.425Z,22.00
2019-06-10T09:11:23.762Z,22.10
2019-06-10T09:13:53.645Z,22.10
2019-06-10T09:16:22.875Z,22.10
2019-06-10T09:18:54.949Z,22.10
2019-06-10T09:21:22.406Z,22.20
2019-06-10T09:23:59.087Z,22.20
2019-06-10T09:26:22.973Z,22.20
2019-06-10T09:28:56.207Z,22.20
2019-06-10T09:31:23.743Z,22.20
2019-06-10T09:33:56.245Z,22.30
2019-06-10T09:36:23.558Z,22.30
2019-06-10T09:38:54.966Z,22.20
2019-06-10T09:41:35.819Z,22.30
2019-06-10T09:43:56.720Z,22.30
2019-06-10T09:46:23.532Z,22.30
2019-06-10T09:48:55.715Z,22.30
2019-06-10T09:51:23.113Z,22.40
2019-06-10T09:54:02.115Z,22.40
2019-06-10T09:56:23.454Z,22.40
2019-06-10T09:58:55.083Z,22.50
2019-06-10T10:01:24.552Z,22.50
2019-06-10T10:03:59.370Z,22.50
2019-06-10T10:06:23.724Z,22.50
2019-06-10T10:08:57.855Z,22.50
2019-06-10T10:11:23.750Z,22.50
2019-06-10T10:13:53.420Z,22.50
2019-06-10T10:16:22.446Z,22.50
2019-06-10T10:18:57.576Z,22.50
2019-06-10T10:21:22.311Z,22.50
2019-06-10T10:24:05.852Z,22.50
2019-06-10T10:26:21.316Z,22.50
2019-06-10T10:28:52.097Z,22.50
2019-06-10T10:31:23.024Z,22.50
2019-06-10T10:33:50.574Z,22.50
2019-06-10T10:36:19.464Z,22.50
2019-06-10T10:38:48.845Z,22.60
2019-06-10T10:41:17.688Z,22.60
2019-06-10T10:43:48.846Z,22.60
2019-06-10T10:46:16.129Z,22.60
2019-06-10T10:48:45.034Z,22.60
2019-06-10T10:51:13.512Z,22.60
2019-06-10T10:53:46.765Z,22.60
2019-06-10T10:56:12.809Z,22.60
2019-06-10T10:58:45.551Z,22.60
2019-06-10T11:01:14.942Z,22.50
2019-06-10T11:03:45.469Z,22.50
2019-06-10T11:06:13.512Z,22.50
2019-06-10T11:08:43.061Z,22.50
2019-06-10T11:11:13.390Z,22.50
2019-06-10T11:13:43.364Z,22.50
2019-06-10T11:16:11.716Z,22.50
2019-06-10T11:18:42.277Z,22.50
2019-06-10T11:21:13.224Z,22.50
2019-06-10T11:23:43.536Z,22.50
2019-06-10T11:26:12.524Z,22.50
2019-06-10T11:28:42.366Z,22.60
2019-06-10T11:31:14.008Z,22.60
2019-06-10T11:33:43.444Z,22.50
2019-06-10T11:57:59.407Z,22.60
2019-06-10T12:00:27.800Z,22.60
2019-06-10T12:02:58.559Z,22.60
2019-06-10T12:05:26.748Z,22.60
2019-06-10T12:07:59.353Z,22.60
2019-06-10T12:10:25.200Z,22.50
2019-06-10T12:12:58.190Z,22.50
2019-06-10T12:15:23.980Z,22.50
2019-06-10T12:18:01.771Z,22.50
2019-06-10T12:20:23.081Z,22.50
2019-06-10T12:22:56.268Z,22.50
2019-06-10T12:25:32.406Z,22.50
2019-06-10T12:27:55.820Z,22.50
2019-06-10T12:30:22.901Z,22.50
2019-06-10T12:32:55.365Z,22.50
2019-06-10T12:35:23.018Z,22.40
2019-06-10T12:37:55.059Z,22.40
2019-06-10T12:40:21.452Z,22.40
2019-06-10T12:42:52.498Z,22.40
2019-06-10T12:45:23.198Z,22.40
2019-06-10T12:47:53.335Z,22.40
2019-06-10T12:50:20.776Z,22.40
2019-06-10T12:52:49.449Z,22.40
2019-06-10T12:55:18.444Z,22.40
2019-06-10T12:57:47.100Z,22.30
2019-06-10T13:00:22.396Z,22.30
2019-06-10T13:02:45.956Z,22.30
2019-06-10T13:05:15.049Z,22.30
2019-06-10T13:07:43.884Z,22.30
2019-06-10T13:10:12.821Z,22.30
2019-06-10T13:12:42.914Z,22.30
2019-06-10T13:15:11.821Z,22.30
2019-06-10T13:17:43.782Z,22.30
2019-06-10T13:20:13.558Z,22.30
2019-06-10T13:22:43.043Z,22.30
2019-06-10T13:25:13.334Z,22.30
2019-06-10T13:27:42.826Z,22.30
2019-06-10T13:30:11.825Z,22.30
2019-06-10T13:32:43.303Z,22.40
2019-06-10T13:35:12.457Z,22.40
2019-06-10T13:37:42.836Z,22.40
2019-06-10T13:40:12.999Z,22.30
2019-06-10T13:42:42.413Z,22.40
2019-06-10T13:45:11.701Z,22.40
2019-06-10T13:47:42.818Z,22.40
2019-06-10T13:50:13.743Z,22.40
2019-06-10T13:52:42.480Z,22.40
2019-06-10T13:55:13.031Z,22.40
2019-06-10T13:57:44.389Z,22.40
2019-06-10T14:00:12.375Z,22.40
2019-06-10T14:02:42.968Z,22.40
2019-06-10T14:05:17.892Z,22.40
2019-06-10T14:07:43.328Z,22.40
2019-06-10T14:10:17.827Z,22.40
2019-06-10T14:12:43.285Z,22.40
2019-06-10T14:15:17.012Z,22.40
2019-06-10T14:17:42.904Z,22.40
2019-06-10T14:20:15.356Z,22.40
2019-06-10T14:22:42.509Z,22.40
2019-06-10T14:25:16.613Z,22.40
2019-06-10T14:27:42.643Z,22.40
2019-06-10T14:30:14.131Z,22.40
2019-06-10T14:32:42.602Z,22.40
2019-06-10T14:35:15.281Z,22.40
2019-06-10T14:37:42.994Z,22.40
2019-06-10T14:40:20.085Z,22.40
2019-06-10T14:42:42.913Z,22.40
2019-06-10T14:45:13.991Z,22.40
2019-06-10T14:47:43.111Z,22.40
2019-06-10T14:50:14.329Z,22.40
2019-06-10T14:52:42.791Z,22.30
2019-06-10T14:55:11.918Z,22.40
2019-06-10T14:57:42.608Z,22.30
2019-06-10T15:00:15.678Z,22.40
2019-06-10T15:02:42.937Z,22.40
2019-06-10T15:05:15.378Z,22.40
2019-06-10T15:07:42.322Z,22.30
2019-06-10T15:10:14.474Z,22.30
2019-06-10T15:12:42.278Z,22.30
2019-06-10T15:15:12.121Z,22.30
2019-06-10T15:17:42.905Z,22.30
2019-06-10T15:20:11.660Z,22.30
2019-06-10T15:22:40.025Z,22.30
2019-06-10T15:25:08.950Z,22.30
2019-06-10T15:27:37.297Z,22.30
2019-06-10T15:30:12.256Z,22.30
2019-06-10T15:32:35.972Z,22.30
2019-06-10T15:35:04.612Z,22.30
2019-06-10T15:37:33.129Z,22.30
2019-06-10T15:40:03.635Z,22.30
2019-06-10T15:42:33.292Z,22.30
2019-06-10T15:45:02.511Z,22.30
2019-06-10T15:47:31.525Z,22.30
2019-06-10T15:50:00.184Z,22.30
2019-06-10T15:52:28.648Z,22.30
2019-06-10T15:54:57.105Z,22.30
2019-06-10T15:57:38.543Z,22.30
2019-06-10T15:59:55.580Z,22.30
2019-06-10T16:02:25.580Z,22.30
2019-06-10T16:04:54.254Z,22.30
2019-06-10T16:07:25.495Z,22.30
2019-06-10T16:09:53.514Z,22.30
2019-06-10T16:12:26.493Z,22.30
2019-06-10T16:14:52.990Z,22.30
2019-06-10T16:17:21.812Z,22.30
2019-06-10T16:19:53.023Z,22.30
2019-06-10T16:22:22.279Z,22.30
2019-06-10T16:24:52.556Z,22.30
2019-06-10T16:27:24.409Z,22.30
2019-06-10T16:29:52.927Z,22.30
2019-06-10T16:32:23.214Z,22.30
2019-06-10T16:34:52.235Z,22.30
2019-06-10T16:37:23.461Z,22.30
2019-06-10T16:39:52.521Z,22.30
2019-06-10T16:42:25.419Z,22.30
2019-06-10T16:44:52.791Z,22.30
2019-06-10T16:47:25.052Z,22.30
2019-06-10T16:49:52.253Z,22.30
2019-06-10T16:52:24.070Z,22.30
2019-06-10T16:54:52.623Z,22.30
2019-06-10T16:57:24.065Z,22.30
2019-06-10T16:59:52.083Z,22.30
2019-06-10T17:02:23.340Z,22.30
2019-06-10T17:04:52.657Z,22.30
2019-06-10T17:07:21.124Z,22.30
2019-06-10T17:09:49.798Z,22.30
2019-06-10T17:12:18.117Z,22.30
2019-06-10T17:14:46.752Z,22.30
2019-06-10T17:17:15.484Z,22.30
2019-06-10T17:19:44.631Z,22.30
2019-06-10T17:22:13.413Z,22.30
2019-06-10T17:24:42.254Z,22.30
2019-06-10T17:27:13.060Z,22.30
2019-06-10T17:29:42.659Z,22.30
2019-06-10T17:32:13.142Z,22.30
2019-06-10T17:34:42.329Z,22.30
2019-06-10T17:37:12.480Z,22.30
2019-06-10T17:39:42.754Z,22.30
2019-06-10T17:42:12.401Z,22.30
2019-06-10T17:44:42.790Z,22.30
2019-06-10T17:47:13.073Z,22.30
2019-06-10T17:49:41.982Z,22.30
2019-06-10T17:52:12.877Z,22.30
2019-06-10T17:54:40.776Z,22.30
2019-06-10T17:57:09.136Z,22.30
2019-06-10T17:59:37.772Z,22.30
2019-06-10T18:02:06.167Z,22.30
2019-06-10T18:04:34.547Z,22.20
2019-06-10T18:07:02.919Z,22.30
2019-06-10T18:09:33.264Z,22.20
2019-06-10T18:12:02.474Z,22.30
2019-06-10T18:14:34.278Z,22.30
2019-06-10T18:17:02.131Z,22.30
2019-06-10T18:19:34.159Z,22.30
2019-06-10T18:22:02.895Z,22.20
2019-06-10T18:24:30.927Z,22.30
2019-06-10T18:27:02.151Z,22.20
2019-06-10T18:29:32.356Z,22.30
2019-06-10T18:32:00.024Z,22.30
2019-06-10T18:34:29.748Z,22.20
2019-06-10T18:36:59.125Z,22.20
2019-06-10T18:39:27.888Z,22.30
2019-06-10T18:41:56.248Z,22.20
2019-06-10T18:44:26.577Z,22.30
2019-06-10T18:46:54.603Z,22.30
2019-06-10T18:49:23.676Z,22.30
2019-06-10T18:51:53.229Z,22.30
2019-06-10T18:54:22.630Z,22.20
2019-06-10T18:56:52.601Z,22.30
2019-06-10T18:59:21.420Z,22.30
2019-06-10T19:01:52.503Z,22.20
2019-06-10T19:04:22.494Z,22.20
2019-06-10T19:06:52.799Z,22.20
2019-06-10T19:09:20.723Z,22.30
2019-06-10T19:11:49.084Z,22.30
2019-06-10T19:14:17.420Z,22.20
2019-06-10T19:16:45.787Z,22.30
2019-06-10T19:19:14.136Z,22.30
2019-06-10T19:21:43.892Z,22.20
2019-06-10T19:24:13.089Z,22.30
2019-06-10T19:26:44.858Z,22.30
2019-06-10T19:29:13.628Z,22.20
2019-06-10T19:31:46.052Z,22.30
2019-06-10T19:34:13.224Z,22.30
2019-06-10T19:36:41.951Z,22.30
2019-06-10T19:39:12.971Z,22.20
2019-06-10T19:41:45.158Z,22.30
2019-06-10T19:44:12.877Z,22.20
2019-06-10T19:46:42.818Z,22.30
2019-06-10T19:49:13.355Z,22.30
2019-06-10T19:51:44.014Z,22.30
2019-06-10T19:54:12.743Z,22.30
2019-06-10T19:56:41.929Z,22.20
2019-06-10T19:59:12.560Z,22.20
2019-06-10T20:01:41.912Z,22.20
2019-06-10T20:04:10.972Z,22.20
2019-06-10T20:06:43.529Z,22.30
2019-06-10T20:09:13.068Z,22.20
2019-06-10T20:11:45.701Z,22.20
2019-06-10T20:14:12.856Z,22.30
2019-06-10T20:16:44.012Z,22.30
2019-06-10T20:19:13.005Z,22.30
2019-06-10T20:21:43.612Z,22.20
2019-06-10T20:24:12.509Z,22.20
2019-06-10T20:26:43.283Z,22.30
2019-06-10T20:29:12.631Z,22.30
2019-06-10T20:31:45.122Z,22.30
2019-06-10T20:34:13.282Z,22.30
2019-06-10T20:36:44.121Z,22.30
2019-06-10T20:39:12.148Z,22.30
2019-06-10T20:41:46.827Z,22.30
2019-06-10T20:44:12.950Z,22.30
2019-06-10T20:46:43.066Z,22.20
2019-06-10T20:49:10.514Z,22.20
2019-06-10T20:51:50.300Z,22.20
2019-06-10T20:54:08.855Z,22.30
2019-06-10T20:56:38.604Z,22.20
2019-06-10T20:59:07.087Z,22.30
2019-06-10T21:01:35.768Z,22.30
2019-06-10T21:04:04.278Z,22.30
2019-06-10T21:06:34.100Z,22.20
2019-06-10T21:09:03.027Z,22.20
2019-06-10T21:11:32.238Z,22.20
2019-06-10T21:14:03.089Z,22.20
2019-06-10T21:16:32.155Z,22.30
2019-06-10T21:19:00.986Z,22.30
2019-06-10T21:21:29.325Z,22.30
2019-06-10T21:23:57.763Z,22.30
2019-06-10T21:26:26.430Z,22.20
2019-06-10T21:28:55.347Z,22.30
2019-06-10T21:31:23.840Z,22.20
2019-06-10T21:33:55.692Z,22.20
2019-06-10T21:36:22.964Z,22.20
2019-06-10T21:38:55.391Z,22.20
2019-06-10T21:41:22.752Z,22.20
2019-06-10T21:43:57.558Z,22.30
2019-06-10T21:46:22.613Z,22.20
2019-06-10T21:48:52.550Z,22.20
2019-06-10T21:51:22.813Z,22.20
2019-06-10T21:53:53.292Z,22.30
2019-06-10T21:56:22.507Z,22.20
2019-06-10T21:58:53.649Z,22.20
2019-06-10T22:01:22.505Z,22.20
2019-06-10T22:03:58.725Z,22.20
2019-06-10T22:06:22.767Z,22.20
2019-06-10T22:08:54.573Z,22.20
2019-06-10T22:11:23.330Z,22.20
2019-06-10T22:13:53.354Z,22.20
2019-06-10T22:16:22.618Z,22.20
2019-06-10T22:18:51.147Z,22.20
2019-06-10T22:21:22.399Z,22.20
2019-06-10T22:23:51.508Z,22.20
2019-06-10T22:26:22.341Z,22.20
2019-06-10T22:28:52.695Z,22.20
2019-06-10T22:31:23.771Z,22.20
2019-06-10T22:33:52.068Z,22.20
2019-06-10T22:36:23.014Z,22.20
2019-06-10T22:38:54.050Z,22.20
2019-06-10T22:41:22.600Z,22.20
2019-06-10T22:43:52.153Z,22.20
2019-06-10T22:46:23.194Z,22.20
2019-06-10T22:48:53.277Z,22.20
2019-06-10T22:51:22.715Z,22.20
2019-06-10T22:53:54.750Z,22.20
2019-06-10T22:56:22.124Z,22.20
2019-06-10T22:58:53.976Z,22.20
2019-06-10T23:01:33.612Z,22.20
2019-06-10T23:03:52.049Z,22.20
2019-06-10T23:06:23.020Z,22.20
2019-06-10T23:08:53.368Z,22.20
2019-06-10T23:11:20.859Z,22.20
2019-06-10T23:13:50.599Z,22.20
2019-06-10T23:16:19.376Z,22.20
2019-06-10T23:18:48.863Z,22.20
2019-06-10T23:21:17.420Z,22.20
2019-06-10T23:23:47.243Z,22.20
2019-06-10T23:26:15.579Z,22.20
2019-06-10T23:28:43.992Z,22.20
2019-06-10T23:31:12.740Z,22.20
2019-06-10T23:33:42.597Z,22.20
2019-06-10T23:36:13.065Z,22.20
2019-06-10T23:38:43.157Z,22.20
2019-06-10T23:41:13.000Z,22.20
2019-06-10T23:43:42.322Z,22.20
2019-06-10T23:46:12.128Z,22.20
2019-06-10T23:48:42.390Z,22.20
2019-06-10T23:51:12.087Z,22.20
2019-06-10T23:53:40.714Z,22.20
2019-06-10T23:56:09.163Z,22.20
2019-06-10T23:58:37.606Z,22.20
